createdAt,value
2023-04-22T00:02:01.885Z,100289.54
2023-04-22T00:04:30.028Z,100288.20
2023-04-22T00:06:58.175Z,100292.70
2023-04-22T00:09:26.155Z,100285.62
2023-04-22T00:11:53.904Z,100288.69
2023-04-22T00:14:21.688Z,100284.73
2023-04-22T00:16:49.506Z,100284.38
2023-04-22T00:19:17.220Z,100283.17
2023-04-22T00:21:45.182Z,100276.62
2023-04-22T00:24:13.050Z,100277.38
2023-04-22T00:26:43.549Z,100276.98
2023-04-22T00:29:11.414Z,100275.23
2023-04-22T00:31:39.402Z,100276.61
2023-04-22T00:34:07.439Z,100275.68
2023-04-22T00:36:35.300Z,100276.31
2023-04-22T00:39:03.171Z,100273.55
2023-04-22T00:41:32.294Z,100273.65
2023-04-22T00:44:00.872Z,100270.98
2023-04-22T00:46:29.490Z,100270.08
2023-04-22T00:48:58.233Z,100271.14
2023-04-22T00:51:26.081Z,100273.38
2023-04-22T00:53:53.936Z,100272.02
2023-04-22T00:56:22.361Z,100273.34
2023-04-22T00:58:50.391Z,100275.43
2023-04-22T01:01:18.845Z,100277.48
2023-04-22T01:03:48.542Z,100272.23
2023-04-22T01:06:20.512Z,100270.42
2023-04-22T01:08:48.646Z,100267.83
2023-04-22T01:11:16.600Z,100266.33
2023-04-22T01:13:44.365Z,100264.94
2023-04-22T01:16:13.222Z,100268.45
2023-04-22T01:18:41.808Z,100263.16
2023-04-22T01:21:09.979Z,100265.33
2023-04-22T01:23:38.252Z,100263.93
2023-04-22T01:26:06.181Z,100264.05
2023-04-22T01:28:34.073Z,100267.55
2023-04-22T01:31:02.187Z,100263.84
2023-04-22T01:33:30.144Z,100259.83
2023-04-22T01:35:59.697Z,100263.25
2023-04-22T01:38:27.511Z,100265.11
2023-04-22T01:40:55.467Z,100267.48
2023-04-22T01:43:23.744Z,100269.30
2023-04-22T01:45:51.515Z,100269.13
2023-04-22T01:48:19.359Z,100267.57
2023-04-22T01:50:47.220Z,100269.73
2023-04-22T01:53:14.952Z,100270.78
2023-04-22T01:55:43.374Z,100270.64
2023-04-22T01:58:11.198Z,100266.45
2023-04-22T02:00:39.054Z,100265.67
2023-04-22T02:03:07.572Z,100263.05
2023-04-22T02:05:35.526Z,100264.29
2023-04-22T02:08:03.317Z,100265.33
2023-04-22T02:10:31.402Z,100264.91
2023-04-22T02:12:59.148Z,100261.97
2023-04-22T02:15:26.963Z,100263.02
2023-04-22T02:17:55.032Z,100257.48
2023-04-22T02:20:22.772Z,100256.27
2023-04-22T02:22:51.077Z,100256.38
2023-04-22T02:25:18.936Z,100251.78
2023-04-22T02:27:46.676Z,100249.92
2023-04-22T02:30:14.777Z,100246.75
2023-04-22T02:32:42.740Z,100246.60
2023-04-22T02:35:11.763Z,100245.86
2023-04-22T02:37:39.916Z,100247.38
2023-04-22T02:40:09.273Z,100246.40
2023-04-22T02:42:36.985Z,100245.91
2023-04-22T02:45:05.532Z,100249.66
2023-04-22T02:47:33.358Z,100246.98
2023-04-22T02:50:01.174Z,100246.87
2023-04-22T02:52:28.983Z,100247.95
2023-04-22T02:54:58.798Z,100244.59
2023-04-22T02:57:26.978Z,100248.31
2023-04-22T02:59:54.868Z,100249.14
2023-04-22T03:02:23.145Z,100250.17
2023-04-22T03:04:52.375Z,100248.45
2023-04-22T03:07:20.415Z,100246.02
2023-04-22T03:09:48.113Z,100242.55
2023-04-22T03:12:15.968Z,100248.15
2023-04-22T03:14:43.816Z,100249.98
2023-04-22T03:17:11.674Z,100248.80
2023-04-22T03:19:39.697Z,100248.87
2023-04-22T03:22:08.254Z,100250.16
2023-04-22T03:24:36.079Z,100255.55
2023-04-22T03:27:04.299Z,100255.55
2023-04-22T03:29:32.212Z,100258.16
2023-04-22T03:31:59.967Z,100257.77
2023-04-22T03:34:27.872Z,100260.54
2023-04-22T03:36:56.376Z,100262.23
2023-04-22T03:39:24.201Z,100263.16
2023-04-22T03:41:51.922Z,100260.63
2023-04-22T03:44:19.651Z,100262.77
2023-04-22T03:46:47.415Z,100267.58
2023-04-22T03:49:15.629Z,100268.21
2023-04-22T03:51:43.405Z,100265.14
2023-04-22T03:54:11.249Z,100268.89
2023-04-22T03:56:39.014Z,100270.16
2023-04-22T03:59:06.732Z,100270.37
2023-04-22T04:01:36.920Z,100270.36
2023-04-22T04:04:13.492Z,100273.95
2023-04-22T04:06:41.623Z,100277.37
2023-04-22T04:09:14.116Z,100278.10
2023-04-22T04:11:41.919Z,100278.05
2023-04-22T04:14:09.879Z,100286.48
2023-04-22T04:16:37.776Z,100284.36
2023-04-22T04:19:06.446Z,100283.55
2023-04-22T04:21:34.338Z,100284.48
2023-04-22T04:24:03.439Z,100286.25
2023-04-22T04:26:32.726Z,100284.88
2023-04-22T04:29:01.941Z,100285.63
2023-04-22T04:31:29.943Z,100286.95
2023-04-22T04:33:58.645Z,100293.02
2023-04-22T04:36:27.750Z,100290.79
2023-04-22T04:38:56.920Z,100292.80
2023-04-22T04:41:28.341Z,100295.42
2023-04-22T04:44:00.721Z,100299.05
2023-04-22T04:46:30.350Z,100298.97
2023-04-22T04:48:58.921Z,100300.91
2023-04-22T04:51:26.684Z,100300.77
2023-04-22T04:53:54.696Z,100301.34
2023-04-22T04:56:24.513Z,100300.47
2023-04-22T04:58:52.389Z,100303.08
2023-04-22T05:01:20.444Z,100305.35
2023-04-22T05:03:48.494Z,100305.99
2023-04-22T05:06:17.445Z,100306.45
2023-04-22T05:08:45.570Z,100306.20
2023-04-22T05:11:13.487Z,100303.59
2023-04-22T05:13:41.653Z,100306.60
2023-04-22T05:16:09.627Z,100305.24
2023-04-22T05:18:37.353Z,100302.90
2023-04-22T05:21:05.314Z,100306.59
2023-04-22T05:23:33.148Z,100305.61
2023-04-22T05:26:00.982Z,100308.70
2023-04-22T05:28:28.792Z,100316.05
2023-04-22T05:30:57.986Z,100316.52
2023-04-22T05:33:25.655Z,100318.61
2023-04-22T05:35:53.850Z,100324.15
2023-04-22T05:38:21.693Z,100323.92
2023-04-22T05:40:49.439Z,100323.80
2023-04-22T05:43:17.234Z,100325.02
2023-04-22T05:45:45.223Z,100328.20
2023-04-22T05:48:13.038Z,100333.36
2023-04-22T05:50:40.896Z,100328.50
2023-04-22T05:53:08.680Z,100330.10
2023-04-22T05:55:36.485Z,100331.16
2023-04-22T05:58:04.286Z,100329.32
2023-04-22T06:00:32.250Z,100328.61
2023-04-22T06:03:00.184Z,100329.84
2023-04-22T06:05:28.332Z,100331.77
2023-04-22T06:07:56.474Z,100330.14
2023-04-22T06:10:24.292Z,100332.47
2023-04-22T06:12:53.593Z,100332.98
2023-04-22T06:15:21.971Z,100333.45
2023-04-22T06:17:50.700Z,100337.02
2023-04-22T06:20:18.612Z,100334.90
2023-04-22T06:22:46.654Z,100333.42
2023-04-22T06:25:15.264Z,100332.50
2023-04-22T06:27:43.213Z,100332.52
2023-04-22T06:30:12.315Z,100329.67
2023-04-22T06:32:40.237Z,100331.92
2023-04-22T06:35:08.460Z,100324.84
2023-04-22T06:37:37.078Z,100328.20
2023-04-22T06:40:05.353Z,100331.74
2023-04-22T06:42:33.046Z,100330.77
2023-04-22T06:45:06.601Z,100328.17
2023-04-22T06:47:34.761Z,100327.36
2023-04-22T06:50:02.691Z,100324.69
2023-04-22T06:52:30.430Z,100323.80
2023-04-22T06:54:58.182Z,100328.16
2023-04-22T06:57:28.201Z,100325.77
2023-04-22T06:59:56.229Z,100323.10
2023-04-22T07:02:24.110Z,100324.59
2023-04-22T07:04:55.185Z,100323.84
2023-04-22T07:07:23.949Z,100323.31
2023-04-22T07:22:07.128Z,100325.52
2023-04-22T07:24:38.796Z,100323.38
2023-04-22T07:27:48.396Z,100322.27
2023-04-22T07:30:20.169Z,100318.45
2023-04-22T07:32:49.205Z,100320.07
2023-04-22T07:35:16.258Z,100317.06
2023-04-22T07:37:43.178Z,100317.16
2023-04-22T07:41:45.228Z,100319.38
2023-04-22T07:44:18.529Z,100317.33
2023-04-22T07:46:50.703Z,100318.19
2023-04-22T07:49:20.119Z,100316.27
2023-04-22T07:51:47.276Z,100318.62
2023-04-22T08:07:32.665Z,100313.05
2023-04-22T08:20:56.523Z,100317.59
2023-04-22T08:24:01.453Z,100314.85
2023-04-22T08:27:50.743Z,100316.69
2023-04-22T08:41:29.513Z,100318.30
2023-04-22T08:44:22.272Z,100314.43
2023-04-22T08:58:19.639Z,100314.32
2023-04-22T09:01:14.289Z,100313.40
2023-04-22T09:03:45.037Z,100315.05
2023-04-22T09:06:20.015Z,100313.14
2023-04-22T09:08:50.669Z,100314.55
2023-04-22T09:11:18.849Z,100310.66
2023-04-22T09:13:49.632Z,100310.37
2023-04-22T09:16:18.774Z,100310.27
2023-04-22T09:18:50.230Z,100312.89
2023-04-22T09:21:18.128Z,100309.55
2023-04-22T09:23:51.477Z,100310.63
2023-04-22T09:26:29.588Z,100317.20
2023-04-22T09:28:59.389Z,100313.80
2023-04-22T09:31:28.608Z,100314.06
2023-04-22T09:33:58.879Z,100309.80
2023-04-22T09:36:31.964Z,100306.19
2023-04-22T09:39:09.642Z,100304.54
2023-04-22T09:41:39.989Z,100291.47
2023-04-22T09:44:16.677Z,100292.40
2023-04-22T09:46:51.744Z,100294.13
2023-04-22T09:49:21.612Z,100296.06
2023-04-22T09:51:57.128Z,100295.27
2023-04-22T09:54:26.581Z,100295.42
2023-04-22T09:56:55.722Z,100292.96
2023-04-22T09:59:42.868Z,100295.44
2023-04-22T10:02:16.760Z,100293.52
2023-04-22T10:04:47.595Z,100295.52
2023-04-22T10:08:51.486Z,100292.23
2023-04-22T10:11:38.868Z,100290.86
2023-04-22T10:14:10.716Z,100286.48
2023-04-22T10:16:59.309Z,100284.63
2023-04-22T10:19:33.007Z,100280.00
2023-04-22T10:22:05.976Z,100281.38
2023-04-22T10:24:38.596Z,100284.02
2023-04-22T10:27:12.822Z,100282.45
2023-04-22T10:29:43.857Z,100282.35
2023-04-22T10:32:22.786Z,100278.11
2023-04-22T10:35:06.603Z,100277.59
2023-04-22T10:38:08.694Z,100274.22
2023-04-22T10:42:14.971Z,100272.83
2023-04-22T10:44:48.417Z,100263.21
2023-04-22T10:47:42.874Z,100256.87
2023-04-22T10:50:20.151Z,100250.82
2023-04-22T10:53:45.861Z,100249.85
2023-04-22T10:57:55.022Z,100240.91
2023-04-22T11:01:30.621Z,100236.52
2023-04-22T11:05:27.115Z,100241.29
2023-04-22T11:09:17.709Z,100245.44
2023-04-22T11:22:46.038Z,100244.33
2023-04-22T11:25:44.842Z,100237.83
2023-04-22T11:30:05.121Z,100235.37
2023-04-22T11:32:32.268Z,100231.56
2023-04-22T11:35:09.026Z,100233.14
2023-04-22T11:37:51.276Z,100227.04
2023-04-22T11:40:46.220Z,100217.39
2023-04-22T11:43:15.083Z,100213.42
2023-04-22T11:45:44.362Z,100216.25
2023-04-22T11:48:17.408Z,100223.55
2023-04-22T11:50:45.909Z,100222.83
2023-04-22T11:53:24.418Z,100225.02
2023-04-22T11:55:53.049Z,100219.52
2023-04-22T11:58:54.639Z,100220.46
2023-04-22T12:01:25.905Z,100222.02
2023-04-22T12:04:01.580Z,100219.34
2023-04-22T12:06:32.594Z,100214.36
2023-04-22T12:09:02.636Z,100214.81
2023-04-22T12:13:47.667Z,100214.08
2023-04-22T12:16:21.190Z,100214.75
2023-04-22T12:18:56.753Z,100219.15
2023-04-22T12:21:42.555Z,100221.09
2023-04-22T12:24:12.028Z,100219.86
2023-04-22T12:26:41.694Z,100217.19
2023-04-22T12:29:09.946Z,100214.64
2023-04-22T12:31:49.568Z,100208.32
2023-04-22T12:34:18.429Z,100200.73
2023-04-22T12:39:19.741Z,100191.63
2023-04-22T12:42:41.112Z,100184.71
2023-04-22T12:45:10.902Z,100181.18
2023-04-22T12:47:42.607Z,100174.08
2023-04-22T12:50:15.327Z,100174.89
2023-04-22T12:52:43.336Z,100173.02
2023-04-22T12:55:11.273Z,100169.27
2023-04-22T12:57:40.099Z,100173.47
2023-04-22T13:00:17.217Z,100172.33
2023-04-22T13:02:47.799Z,100163.30
2023-04-22T13:05:17.366Z,100163.09
2023-04-22T13:07:53.182Z,100159.79
2023-04-22T13:10:28.797Z,100155.91
2023-04-22T13:13:06.429Z,100158.46
2023-04-22T13:15:44.466Z,100150.79
2023-04-22T13:18:13.989Z,100157.05
2023-04-22T13:20:42.842Z,100157.55
2023-04-22T13:23:11.017Z,100157.02
2023-04-22T13:25:39.050Z,100152.08
2023-04-22T13:28:11.797Z,100158.21
2023-04-22T13:30:40.444Z,100150.77
2023-04-22T13:33:08.319Z,100151.73
2023-04-22T13:35:36.949Z,100144.84
2023-04-22T13:38:05.995Z,100143.11
2023-04-22T13:40:36.041Z,100140.77
2023-04-22T13:43:05.221Z,100144.41
2023-04-22T13:45:33.088Z,100137.30
2023-04-22T13:48:01.270Z,100139.91
2023-04-22T13:50:29.227Z,100142.30
2023-04-22T13:52:57.308Z,100138.22
2023-04-22T13:55:26.806Z,100139.10
2023-04-22T13:57:54.874Z,100135.95
2023-04-22T14:00:27.515Z,100133.16
2023-04-22T14:02:56.587Z,100136.60
2023-04-22T14:05:27.464Z,100130.24
2023-04-22T14:07:56.090Z,100126.56
2023-04-22T14:10:23.980Z,100128.18
2023-04-22T14:12:52.310Z,100117.70
2023-04-22T14:15:20.484Z,100120.23
2023-04-22T14:17:49.944Z,100121.06
2023-04-22T14:20:18.097Z,100126.79
2023-04-22T14:22:46.525Z,100125.44
2023-04-22T14:25:14.778Z,100123.04
2023-04-22T14:27:43.214Z,100118.84
2023-04-22T14:30:12.291Z,100120.27
2023-04-22T14:32:42.472Z,100113.34
2023-04-22T14:35:10.513Z,100118.31
2023-04-22T14:37:42.182Z,100117.66
2023-04-22T14:40:12.275Z,100119.72
2023-04-22T14:42:47.898Z,100124.27
2023-04-22T14:45:26.956Z,100128.05
2023-04-22T14:47:56.402Z,100127.96
2023-04-22T14:50:25.800Z,100126.80
2023-04-22T14:56:22.188Z,100127.17
2023-04-22T14:58:49.383Z,100136.13
2023-04-22T15:01:16.548Z,100134.22
2023-04-22T15:03:43.699Z,100125.10
2023-04-22T15:06:11.446Z,100121.02
2023-04-22T15:08:40.421Z,100120.08
2023-04-22T15:11:07.244Z,100121.45
2023-04-22T15:13:33.799Z,100117.05
2023-04-22T15:16:05.825Z,100113.33
2023-04-22T15:18:32.700Z,100117.12
2023-04-22T15:21:02.413Z,100126.20
2023-04-22T15:23:28.956Z,100126.59
2023-04-22T15:25:55.873Z,100131.56
2023-04-22T15:28:23.880Z,100128.81
2023-04-22T15:30:55.970Z,100127.66
2023-04-22T15:33:24.992Z,100126.02
2023-04-22T15:35:51.988Z,100117.39
2023-04-22T15:38:25.980Z,100114.54
2023-04-22T15:40:56.327Z,100111.90
2023-04-22T15:43:23.618Z,100108.40
2023-04-22T15:45:52.455Z,100110.32
2023-04-22T15:48:20.287Z,100111.69
2023-04-22T15:50:53.865Z,100111.09
2023-04-22T15:53:23.504Z,100114.83
2023-04-22T15:55:53.117Z,100113.85
2023-04-22T15:58:20.557Z,100111.30
2023-04-22T16:00:51.632Z,100103.05
2023-04-22T16:03:21.140Z,100096.60
2023-04-22T16:06:33.418Z,100093.98
2023-04-22T16:09:06.443Z,100091.98
2023-04-22T16:11:55.683Z,100085.72
2023-04-22T16:14:28.577Z,100095.10
2023-04-22T16:19:53.117Z,100098.86
2023-04-22T16:20:12.696Z,100096.82
2023-04-22T16:22:22.531Z,100096.96
2023-04-22T16:24:51.545Z,100091.73
2023-04-22T16:27:18.595Z,100088.46
2023-04-22T16:29:45.661Z,100088.35
2023-04-22T16:32:12.805Z,100081.63
2023-04-22T16:34:39.287Z,100077.83
2023-04-22T16:37:05.889Z,100073.34
2023-04-22T16:39:33.295Z,100072.03
2023-04-22T16:59:38.709Z,100051.10
2023-04-22T17:02:06.884Z,100055.30
2023-04-22T17:04:34.983Z,100051.51
2023-04-22T17:07:02.883Z,100053.63
2023-04-22T17:09:32.847Z,100054.06
2023-04-22T17:12:01.606Z,100055.83
2023-04-22T17:14:29.917Z,100057.02
2023-04-22T17:16:58.779Z,100053.36
2023-04-22T17:19:27.957Z,100052.98
2023-04-22T17:21:56.011Z,100050.88
2023-04-22T17:24:25.281Z,100051.16
2023-04-22T17:26:53.267Z,100048.34
2023-04-22T17:29:21.963Z,100051.48
2023-04-22T17:31:50.741Z,100049.13
2023-04-22T17:40:36.846Z,100054.45
2023-04-22T17:43:04.784Z,100056.39
2023-04-22T17:45:33.201Z,100057.60
2023-04-22T17:48:01.752Z,100057.55
2023-04-22T17:50:29.683Z,100058.21
2023-04-22T17:52:58.199Z,100064.93
2023-04-22T17:55:33.167Z,100067.60
2023-04-22T17:58:03.121Z,100068.08
2023-04-22T18:00:33.458Z,100067.13
2023-04-22T18:03:02.017Z,100066.35
2023-04-22T18:05:29.985Z,100068.02
2023-04-22T18:08:10.386Z,100070.04
2023-04-22T18:10:38.917Z,100071.30
2023-04-22T18:13:06.952Z,100071.23
2023-04-22T18:15:34.811Z,100071.20
2023-04-22T18:18:02.815Z,100071.69
2023-04-22T18:20:30.687Z,100072.58
2023-04-22T18:22:58.593Z,100072.26
2023-04-22T18:25:26.909Z,100069.70
2023-04-22T18:27:55.146Z,100068.79
2023-04-22T18:30:23.626Z,100071.66
2023-04-22T18:32:52.003Z,100074.11
2023-04-22T18:35:20.302Z,100072.54
2023-04-22T18:37:49.275Z,100074.77
2023-04-22T18:40:17.649Z,100076.18
2023-04-22T18:42:46.089Z,100075.98
2023-04-22T18:45:16.695Z,100078.77
2023-04-22T18:47:47.135Z,100081.77
2023-04-22T18:50:15.257Z,100081.95
2023-04-22T18:52:43.106Z,100083.30
2023-04-22T18:55:11.398Z,100081.61
2023-04-22T18:57:41.976Z,100080.56
2023-04-22T19:00:10.962Z,100076.64
2023-04-22T19:02:41.516Z,100076.11
2023-04-22T19:05:10.696Z,100080.66
2023-04-22T19:07:38.951Z,100078.13
2023-04-22T19:10:07.975Z,100077.92
2023-04-22T19:12:36.346Z,100073.09
2023-04-22T19:15:06.974Z,100073.17
2023-04-22T19:17:35.061Z,100075.48
2023-04-22T19:20:05.323Z,100081.69
2023-04-22T19:22:33.130Z,100081.61
2023-04-22T19:25:01.186Z,100083.59
2023-04-22T19:27:29.259Z,100081.21
2023-04-22T19:29:57.042Z,100086.16
2023-04-22T19:32:25.097Z,100082.76
2023-04-22T19:34:53.960Z,100081.60
2023-04-22T19:37:22.264Z,100083.59
2023-04-22T19:39:50.177Z,100078.39
2023-04-22T19:42:20.553Z,100082.54
2023-04-22T19:44:49.861Z,100079.83
2023-04-22T19:47:17.849Z,100078.77
2023-04-22T19:49:46.238Z,100077.52
2023-04-22T19:52:15.802Z,100073.89
2023-04-22T19:54:47.757Z,100070.92
2023-04-22T19:57:15.878Z,100071.46
2023-04-22T19:59:45.606Z,100073.45
2023-04-22T20:02:14.454Z,100075.48
2023-04-22T20:04:43.238Z,100072.64
2023-04-22T20:07:12.330Z,100069.38
2023-04-22T20:09:43.207Z,100066.11
2023-04-22T20:12:11.453Z,100065.83
2023-04-22T20:14:39.480Z,100062.48
2023-04-22T20:17:07.407Z,100066.73
2023-04-22T20:19:35.378Z,100068.10
2023-04-22T20:22:06.552Z,100067.75
2023-04-22T20:24:37.277Z,100067.26
2023-04-22T20:27:08.119Z,100065.61
2023-04-22T20:29:38.486Z,100061.63
2023-04-22T20:32:07.053Z,100066.00
2023-04-22T20:34:36.190Z,100066.98
2023-04-22T20:37:06.624Z,100067.85
2023-04-22T20:42:21.414Z,100067.17
2023-04-22T20:44:49.155Z,100065.44
2023-04-22T20:47:17.317Z,100063.45
2023-04-22T20:49:45.160Z,100064.02
2023-04-22T20:52:13.332Z,100067.61
2023-04-22T20:54:41.165Z,100069.37
2023-04-22T20:57:08.872Z,100068.73
2023-04-22T20:59:36.988Z,100067.46
2023-04-22T21:02:06.724Z,100066.11
2023-04-22T21:04:34.938Z,100071.11
2023-04-22T21:07:07.044Z,100067.58
2023-04-22T21:09:35.265Z,100065.44
2023-04-22T21:17:35.632Z,100063.84
2023-04-22T21:20:07.024Z,100061.55
2023-04-22T21:22:36.034Z,100057.73
2023-04-22T21:25:04.789Z,100060.61
2023-04-22T21:27:34.663Z,100060.36
2023-04-22T21:30:03.034Z,100063.97
2023-04-22T21:32:33.200Z,100067.04
2023-04-22T21:41:17.094Z,100074.09
2023-04-22T21:43:48.722Z,100073.46
2023-04-22T21:46:17.706Z,100070.27
2023-04-22T21:48:45.623Z,100078.25
2023-04-22T21:51:14.412Z,100076.36
2023-04-22T21:53:44.522Z,100076.39
2023-04-22T21:56:31.641Z,100074.69
2023-04-22T21:59:00.777Z,100073.77
2023-04-22T22:01:28.553Z,100073.12
2023-04-22T22:03:57.626Z,100070.66
2023-04-22T22:06:25.529Z,100068.88
2023-04-22T22:08:53.465Z,100073.48
2023-04-22T22:11:30.245Z,100070.36
2023-04-22T22:13:59.226Z,100076.70
2023-04-22T22:16:27.150Z,100077.99
2023-04-22T22:18:57.838Z,100077.67
2023-04-22T22:21:25.646Z,100077.14
2023-04-22T22:23:53.741Z,100075.31
2023-04-22T22:26:21.533Z,100073.59
2023-04-22T22:28:50.464Z,100075.09
2023-04-22T22:31:18.494Z,100074.75
2023-04-22T22:33:48.664Z,100077.45
2023-04-22T22:36:16.685Z,100075.20
2023-04-22T22:38:49.125Z,100077.64
2023-04-22T22:41:16.851Z,100073.16
2023-04-22T22:43:44.559Z,100069.00
2023-04-22T22:46:12.358Z,100072.63
2023-04-22T22:48:40.342Z,100069.83
2023-04-22T22:51:10.335Z,100070.16
2023-04-22T22:53:38.152Z,100073.23
2023-04-22T22:56:06.802Z,100073.70
2023-04-22T22:58:36.272Z,100074.05
2023-04-22T23:01:05.446Z,100077.66
2023-04-22T23:03:33.965Z,100079.97
2023-04-22T23:06:01.973Z,100078.36
2023-04-22T23:08:29.629Z,100072.45
2023-04-22T23:10:57.881Z,100076.49
2023-04-22T23:13:25.911Z,100076.48
2023-04-22T23:15:53.765Z,100074.95
2023-04-22T23:18:22.137Z,100078.09
2023-04-22T23:20:51.899Z,100077.91
2023-04-22T23:23:19.787Z,100076.94
2023-04-22T23:25:47.942Z,100076.20
2023-04-22T23:28:16.100Z,100074.00
2023-04-22T23:30:44.883Z,100077.02
2023-04-22T23:33:14.713Z,100068.64
2023-04-22T23:35:44.578Z,100073.20
2023-04-22T23:38:12.415Z,100066.69
2023-04-22T23:40:40.281Z,100067.02
2023-04-22T23:43:08.428Z,100064.14
2023-04-22T23:45:36.156Z,100063.24
2023-04-22T23:48:04.650Z,100060.30
2023-04-22T23:50:32.390Z,100059.13
2023-04-22T23:53:00.305Z,100059.10
2023-04-22T23:55:28.581Z,100059.21
2023-04-22T23:57:59.080Z,100058.25
